Sheridan County Airport
KSHR : now visible

Airfield :











YOU CAN JOIN US ON...

 
LOGIN :

Register | Disclaimer

   EN    FR    IT 

 









Legend :    VFR   Marginal VFR   IFR   Intensive IFR   Very Intensive IFR
Visi :
Ceiling :
>= 8 km
>= 3000ft
5 to 8 km
1000 to 3000 ft
1500m to 5 km
500 to 1000 ft
800 to 1500m
200 to 500 ft
< 800m
< 200 ft
Symbols :   Thunderstorms  Fog  Heavy snow  Heavy precipitations  Wind > 20 kt






- Airport Elevation : 4021 ft
- IATA code : SHR


KSHR - Sheridan County

CURRENT METAR :
  • 242353Z AUTO 34013KT 10SM CLR 21/03 A3021 RMK AO2 SLP216 T02060033 10228 20200 53008

EXPIRED METARs :
  • 242253Z AUTO 33013KT 10SM CLR 22/03 A3020 RMK AO2 PK WND 35026/2155 SLP213 T02220033

TAF KSHR
Valid from the 25 at 00:00 until the 26 at 00:00 UTC


242329Z 2500/2524 33012KT P6SM SKC
FM250200 VRB04KT P6SM SKC
FM251800 13006KT P6SM SKC
KZLC FIR / North America



MET'MAP, your aeronautical weather chart ! - Copyright ORBIFLY December 2007 - Disclaimer

ORBIFLY MET'MAP TEAM :

Programming & Development : Alexandra Zaïnal
Original concept : Baudouin d'Aumeries
Technical & hardware support : Manuel Goepfert
Assistance : Marc-Olivier Méhu




SOURCES & CREDITS :

   NOAA       Earth
Advisory